Time;durP1;ratioP1;P1;durP2;ratioP2;P2;SDS_P1;SDS_P2;PMS_P1;PMS_P2;Temp;Humidity;BMP_temperature;BMP_pressure;BME280_temperature;BME280_humidity;BME280_pressure;Samples;Min_cycle;Max_cycle;Signal;HPM_P1;HPM_P2
2023/03/31 00:02:21;;;;;;;3.65;1.55;;;9.10;99.90;;;;;;5080051;27;20454;-75
2023/03/31 00:04:58;;;;;;;3.67;1.40;;;9.10;99.90;;;;;;5063030;28;20461;-75
2023/03/31 00:07:25;;;;;;;4.43;1.63;;;9.10;99.90;;;;;;5060756;28;20441;-75
2023/03/31 00:09:56;;;;;;;4.80;1.40;;;9.10;99.90;;;;;;5067880;28;20421;-75
2023/03/31 00:12:22;;;;;;;4.63;1.70;;;9.10;99.90;;;;;;5057420;28;20802;-75
2023/03/31 00:14:52;;;;;;;3.35;1.55;;;9.00;99.90;;;;;;5080645;28;20410;-75
2023/03/31 00:17:18;;;;;;;2.77;1.40;;;9.00;99.90;;;;;;5075927;28;20784;-76
2023/03/31 00:19:48;;;;;;;2.85;1.30;;;9.00;99.90;;;;;;5102868;27;20437;-76
2023/03/31 00:22:17;;;;;;;3.90;1.40;;;9.00;99.90;;;;;;5071520;28;20820;-76
2023/03/31 00:24:44;;;;;;;4.53;1.60;;;9.00;99.90;;;;;;5069750;28;21132;-76
2023/03/31 00:27:12;;;;;;;4.33;1.50;;;9.10;99.90;;;;;;5054034;28;20414;-76
2023/03/31 00:29:40;;;;;;;4.90;1.60;;;9.10;99.90;;;;;;5053647;28;21057;-75
2023/03/31 00:32:08;;;;;;;5.07;1.83;;;9.00;99.90;;;;;;5068920;28;20443;-75
2023/03/31 00:34:34;;;;;;;5.85;1.60;;;9.00;99.90;;;;;;5068266;28;20923;-75
2023/03/31 00:37:01;;;;;;;2.60;1.30;;;9.00;99.90;;;;;;5102666;27;20423;-76
2023/03/31 00:39:33;;;;;;;5.22;1.40;;;9.00;99.90;;;;;;5076035;28;20448;-75
2023/03/31 00:42:07;;;;;;;5.47;1.40;;;9.00;99.90;;;;;;5069588;28;20407;-75
2023/03/31 00:44:58;;;;;;;4.20;1.58;;;9.00;99.90;;;;;;5104852;27;20473;-75
2023/03/31 00:47:28;;;;;;;3.00;1.35;;;9.00;99.90;;;;;;5070326;28;20422;-75
2023/03/31 00:49:57;;;;;;;4.85;1.65;;;9.00;99.90;;;;;;5072842;28;20433;-76
2023/03/31 00:52:36;;;;;;;5.20;1.40;;;8.90;99.90;;;;;;5072479;28;20924;-76
2023/03/31 00:55:13;;;;;;;6.60;1.50;;;8.90;99.90;;;;;;5054191;28;20436;-76
2023/03/31 00:57:43;;;;;;;5.05;1.70;;;8.90;99.90;;;;;;5055176;28;20412;-76
2023/03/31 01:00:15;;;;;;;4.28;1.55;;;8.90;99.90;;;;;;5075449;28;20427;-75
2023/03/31 01:02:58;;;;;;;2.85;1.35;;;8.90;99.90;;;;;;5079723;28;20412;-76
2023/03/31 01:05:43;;;;;;;3.63;1.60;;;8.90;99.90;;;;;;5068253;28;20402;-76
2023/03/31 01:08:11;;;;;;;3.40;1.30;;;9.00;99.90;;;;;;5071939;28;20526;-74
2023/03/31 01:10:45;;;;;;;2.97;1.50;;;9.00;99.90;;;;;;5074937;28;20493;-75
2023/03/31 01:13:15;;;;;;;6.10;1.70;;;9.00;99.90;;;;;;5100397;27;20921;-75
2023/03/31 01:15:42;;;;;;;5.80;1.65;;;8.90;99.90;;;;;;5089640;28;20856;-75
2023/03/31 01:18:11;;;;;;;3.38;1.52;;;8.90;99.90;;;;;;5065361;28;20425;-74
2023/03/31 01:21:07;;;;;;;6.10;1.80;;;8.90;99.90;;;;;;5067504;28;20412;-74
2023/03/31 01:23:44;;;;;;;4.47;1.60;;;8.90;99.90;;;;;;5057194;28;20911;-74
2023/03/31 01:26:47;;;;;;;3.70;1.40;;;9.00;99.90;;;;;;5065257;28;20477;-74
2023/03/31 01:30:09;;;;;;;7.57;2.00;;;9.10;99.90;;;;;;5069498;28;20569;-74
2023/03/31 01:33:05;;;;;;;4.53;1.48;;;9.10;99.90;;;;;;5071614;28;20912;-74
2023/03/31 01:36:39;;;;;;;4.35;1.65;;;9.10;99.90;;;;;;5055628;28;20400;-74
2023/03/31 01:39:49;;;;;;;4.43;1.63;;;9.10;99.90;;;;;;5037980;28;20405;-74
2023/03/31 01:43:23;;;;;;;3.40;1.40;;;9.00;99.90;;;;;;5068034;28;20440;-74
2023/03/31 01:46:50;;;;;;;4.47;1.60;;;9.00;99.90;;;;;;5037658;28;20424;-74
2023/03/31 01:49:49;;;;;;;4.40;1.60;;;8.90;99.90;;;;;;5041117;28;20419;-74
2023/03/31 01:52:46;;;;;;;3.40;1.50;;;8.80;99.90;;;;;;5071520;28;20415;-74
2023/03/31 01:55:30;;;;;;;5.28;1.60;;;8.90;99.90;;;;;;5050268;28;20491;-74
2023/03/31 01:58:08;;;;;;;5.60;1.70;;;8.90;99.90;;;;;;5067483;28;20418;-74
2023/03/31 02:00:44;;;;;;;6.53;1.80;;;8.90;99.90;;;;;;5054838;28;20456;-76
2023/03/31 02:03:20;;;;;;;6.22;1.90;;;8.90;99.90;;;;;;5070743;28;20406;-74
2023/03/31 02:05:56;;;;;;;3.42;1.67;;;8.90;99.90;;;;;;5081052;28;20514;-74
2023/03/31 02:08:55;;;;;;;3.37;1.77;;;8.90;99.90;;;;;;5070963;28;20425;-74
2023/03/31 02:11:22;;;;;;;5.22;1.70;;;8.90;99.90;;;;;;5086703;28;20424;-74
2023/03/31 02:13:54;;;;;;;4.63;1.60;;;8.90;99.90;;;;;;5068198;28;20412;-74
2023/03/31 02:16:26;;;;;;;4.10;1.50;;;8.90;99.90;;;;;;5068486;28;20406;-74
2023/03/31 02:19:02;;;;;;;4.22;1.50;;;8.90;99.90;;;;;;5064322;28;20403;-74
2023/03/31 02:21:34;;;;;;;6.25;1.80;;;8.90;99.90;;;;;;5083262;28;20440;-74
2023/03/31 02:24:06;;;;;;;7.53;1.80;;;8.80;99.90;;;;;;5074122;28;20408;-75
2023/03/31 02:26:41;;;;;;;4.13;1.67;;;8.80;99.90;;;;;;5068622;28;20398;-75
2023/03/31 02:29:08;;;;;;;4.35;1.60;;;8.70;99.90;;;;;;5049699;28;20411;-75
2023/03/31 02:32:00;;;;;;;4.85;1.70;;;8.70;99.90;;;;;;5059765;28;20478;-74
2023/03/31 02:34:26;;;;;;;5.18;1.70;;;8.70;99.90;;;;;;5096960;28;20410;-75
2023/03/31 02:36:52;;;;;;;3.95;1.48;;;8.70;99.90;;;;;;5067084;28;20414;-75
2023/03/31 02:39:27;;;;;;;5.07;1.55;;;8.70;99.90;;;;;;5074400;28;20410;-75
2023/03/31 02:42:01;;;;;;;3.23;1.70;;;8.70;99.90;;;;;;5101059;27;20821;-75
2023/03/31 02:44:27;;;;;;;4.75;1.67;;;8.70;99.90;;;;;;5071580;28;20750;-75
2023/03/31 02:46:54;;;;;;;3.63;1.70;;;8.70;99.90;;;;;;5070568;28;20406;-74
2023/03/31 02:49:21;;;;;;;3.72;1.45;;;8.70;99.90;;;;;;5072864;28;20450;-74
2023/03/31 02:52:36;;;;;;;3.53;1.40;;;8.60;99.90;;;;;;5070081;28;20467;-74
2023/03/31 02:55:38;;;;;;;5.53;1.77;;;8.60;99.90;;;;;;5070004;28;20813;-74
2023/03/31 02:58:26;;;;;;;4.13;1.70;;;8.50;99.90;;;;;;5069918;28;20419;-74
2023/03/31 03:01:36;;;;;;;3.33;1.52;;;8.50;99.90;;;;;;5068188;28;20790;-74
2023/03/31 03:04:39;;;;;;;4.05;1.50;;;8.40;99.90;;;;;;5066457;28;20427;-75
2023/03/31 03:07:16;;;;;;;3.92;1.50;;;8.40;99.90;;;;;;5071003;28;20423;-75
2023/03/31 03:10:18;;;;;;;4.75;1.70;;;8.30;99.90;;;;;;5077656;28;21152;-75
2023/03/31 03:13:09;;;;;;;2.83;1.50;;;8.30;99.90;;;;;;5059969;28;21409;-74
2023/03/31 03:16:12;;;;;;;4.17;1.53;;;8.20;99.90;;;;;;5106564;27;20414;-74
2023/03/31 03:18:39;;;;;;;6.75;1.90;;;8.20;99.90;;;;;;5073611;28;20430;-75
2023/03/31 03:21:06;;;;;;;5.78;1.50;;;8.10;99.90;;;;;;5058805;28;20481;-74
2023/03/31 03:23:32;;;;;;;2.40;1.50;;;8.20;99.90;;;;;;5073908;28;20422;-75
2023/03/31 03:26:00;;;;;;;4.60;1.65;;;8.20;99.90;;;;;;5104892;27;20498;-75
2023/03/31 03:28:32;;;;;;;5.20;1.60;;;8.20;99.90;;;;;;5070695;28;20976;-74
2023/03/31 03:30:58;;;;;;;4.80;1.60;;;8.10;99.90;;;;;;5072485;28;20414;-75
2023/03/31 03:33:25;;;;;;;5.70;1.70;;;8.00;99.90;;;;;;5072336;28;20419;-74
2023/03/31 03:35:51;;;;;;;4.07;1.40;;;8.00;99.90;;;;;;5064311;28;20421;-75
2023/03/31 03:38:17;;;;;;;2.90;1.67;;;8.00;99.90;;;;;;5067856;28;20419;-75
2023/03/31 03:40:44;;;;;;;3.47;1.95;;;8.00;99.90;;;;;;5074058;28;21727;-75
2023/03/31 03:43:12;;;;;;;5.03;2.00;;;7.90;99.90;;;;;;5071316;28;20700;-74
2023/03/31 03:45:46;;;;;;;4.00;1.80;;;7.90;99.90;;;;;;5071836;28;20402;-75
2023/03/31 03:48:12;;;;;;;5.75;2.20;;;7.90;99.90;;;;;;5072527;28;20418;-75
2023/03/31 03:50:41;;;;;;;5.93;2.05;;;7.90;99.90;;;;;;5070024;28;20512;-75
2023/03/31 03:53:08;;;;;;;4.93;2.17;;;7.80;99.90;;;;;;5072413;28;20415;-75
2023/03/31 03:55:34;;;;;;;3.63;2.00;;;7.70;99.90;;;;;;5068645;28;20419;-74
2023/03/31 03:58:00;;;;;;;4.30;1.77;;;7.70;99.90;;;;;;5063596;28;20720;-74
2023/03/31 04:00:27;;;;;;;4.63;1.70;;;7.60;99.90;;;;;;5072474;28;20431;-74
2023/03/31 04:02:53;;;;;;;4.97;2.10;;;7.60;99.90;;;;;;5068924;28;20401;-74
2023/03/31 04:05:19;;;;;;;3.88;2.00;;;7.60;99.90;;;;;;5075677;28;20428;-75
2023/03/31 04:07:46;;;;;;;4.32;2.00;;;7.60;99.90;;;;;;5065306;28;20411;-74
2023/03/31 04:10:13;;;;;;;3.60;1.80;;;7.50;99.90;;;;;;5072227;28;20422;-74
2023/03/31 04:12:39;;;;;;;4.80;1.80;;;7.30;99.90;;;;;;5070694;28;20414;-74
2023/03/31 04:15:06;;;;;;;6.43;1.93;;;7.30;99.90;;;;;;5077357;28;20404;-75
2023/03/31 04:17:33;;;;;;;3.75;1.73;;;7.20;99.90;;;;;;5069862;28;20494;-75
2023/03/31 04:20:18;;;;;;;5.30;1.80;;;7.20;99.90;;;;;;5084636;28;20421;-74
2023/03/31 04:22:45;;;;;;;4.75;1.80;;;7.10;99.90;;;;;;5072257;28;20410;-75
2023/03/31 04:25:16;;;;;;;4.60;1.80;;;7.20;99.90;;;;;;5077786;28;20781;-75
2023/03/31 04:28:00;;;;;;;4.65;1.80;;;7.10;99.90;;;;;;5097476;27;20426;-74
2023/03/31 04:30:29;;;;;;;4.82;1.60;;;7.10;99.90;;;;;;5068958;28;21183;-74
2023/03/31 04:33:01;;;;;;;6.97;1.90;;;7.10;99.90;;;;;;5070130;28;20408;-74
2023/03/31 04:35:48;;;;;;;3.65;1.70;;;7.10;99.90;;;;;;5073698;28;21134;-74
2023/03/31 04:38:21;;;;;;;4.55;1.75;;;7.20;99.90;;;;;;5095509;27;21097;-74
2023/03/31 04:40:53;;;;;;;4.63;1.70;;;7.20;99.90;;;;;;5074098;28;20492;-74
2023/03/31 04:43:21;;;;;;;4.60;1.70;;;7.20;99.90;;;;;;5052498;28;20820;-74
2023/03/31 04:45:47;;;;;;;3.33;1.65;;;7.40;99.90;;;;;;5070529;28;20409;-74
2023/03/31 04:48:13;;;;;;;4.80;1.30;;;7.50;99.90;;;;;;5067452;28;20399;-74
2023/03/31 04:50:40;;;;;;;3.63;1.42;;;7.60;99.90;;;;;;5068306;28;20404;-74
2023/03/31 04:53:09;;;;;;;4.50;1.63;;;7.60;99.90;;;;;;5065613;28;21356;-74
2023/03/31 04:55:35;;;;;;;2.67;1.40;;;7.60;99.90;;;;;;5071586;28;20414;-74
2023/03/31 04:58:02;;;;;;;5.10;1.65;;;7.70;99.90;;;;;;5067648;28;20475;-74
2023/03/31 05:00:28;;;;;;;4.65;1.67;;;7.70;99.90;;;;;;5068587;28;21067;-74
2023/03/31 05:02:55;;;;;;;4.10;1.50;;;7.70;99.90;;;;;;5069978;28;20479;-74
2023/03/31 05:05:23;;;;;;;5.30;1.73;;;7.80;99.90;;;;;;5068491;28;20407;-74
2023/03/31 05:07:49;;;;;;;3.42;1.40;;;7.80;99.90;;;;;;5073621;28;20733;-74
2023/03/31 05:10:16;;;;;;;2.72;1.50;;;7.80;99.90;;;;;;5049778;28;20419;-74
2023/03/31 05:12:45;;;;;;;3.60;1.60;;;7.80;99.90;;;;;;5069510;28;20476;-74
2023/03/31 05:15:11;;;;;;;3.70;1.52;;;7.80;99.90;;;;;;5067660;28;20450;-74
2023/03/31 05:17:38;;;;;;;5.23;1.40;;;7.90;99.90;;;;;;5101876;27;20409;-75
2023/03/31 05:20:07;;;;;;;3.05;1.60;;;7.90;99.90;;;;;;5070059;28;20916;-75
2023/03/31 05:22:38;;;;;;;5.60;1.73;;;7.90;99.90;;;;;;5073450;28;21007;-75
2023/03/31 05:25:07;;;;;;;3.50;1.60;;;8.00;99.90;;;;;;5066322;28;20442;-75
2023/03/31 05:27:35;;;;;;;4.43;1.50;;;8.10;99.90;;;;;;5067481;28;20426;-74
2023/03/31 05:30:03;;;;;;;4.55;1.88;;;8.10;99.90;;;;;;5069333;28;20510;-74
2023/03/31 05:32:30;;;;;;;6.93;1.77;;;8.10;99.90;;;;;;5068000;28;20493;-74
2023/03/31 05:34:56;;;;;;;3.40;1.65;;;8.20;99.90;;;;;;5066752;28;20413;-74
2023/03/31 05:37:24;;;;;;;4.78;1.58;;;8.30;99.90;;;;;;5068530;28;20427;-74
2023/03/31 05:39:51;;;;;;;3.55;1.63;;;8.40;99.90;;;;;;5069883;28;20426;-75
2023/03/31 05:42:18;;;;;;;2.95;1.60;;;8.40;99.90;;;;;;5067209;28;20463;-74
2023/03/31 05:44:44;;;;;;;5.75;1.80;;;8.50;99.90;;;;;;5069017;28;20438;-74
2023/03/31 05:47:11;;;;;;;5.53;1.70;;;8.60;99.90;;;;;;5074915;28;20406;-75
2023/03/31 05:49:37;;;;;;;4.88;1.50;;;8.60;99.90;;;;;;5072803;28;20444;-74
2023/03/31 05:52:08;;;;;;;6.60;1.75;;;8.70;99.90;;;;;;5083729;28;20418;-74
2023/03/31 05:54:34;;;;;;;4.03;1.67;;;8.90;99.90;;;;;;5064761;28;20403;-74
2023/03/31 05:57:01;;;;;;;6.82;1.67;;;9.00;99.90;;;;;;5075679;28;20479;-74
2023/03/31 05:59:28;;;;;;;5.32;1.70;;;9.10;99.90;;;;;;5077883;28;20419;-73
2023/03/31 06:01:55;;;;;;;5.50;1.50;;;9.20;99.90;;;;;;5078905;28;20426;-73
2023/03/31 06:04:21;;;;;;;4.28;1.50;;;9.30;99.90;;;;;;5073884;28;20410;-74
2023/03/31 06:06:49;;;;;;;4.07;1.60;;;9.40;99.90;;;;;;5063123;28;20410;-74
2023/03/31 06:09:16;;;;;;;5.30;1.50;;;9.40;99.90;;;;;;5081644;28;20931;-74
2023/03/31 06:11:42;;;;;;;4.68;1.60;;;9.50;99.90;;;;;;5075370;28;20421;-74
2023/03/31 06:14:09;;;;;;;3.20;1.50;;;9.70;99.90;;;;;;5079141;28;20413;-74
2023/03/31 06:16:35;;;;;;;5.15;1.52;;;9.70;99.90;;;;;;5074585;28;20531;-74
2023/03/31 06:19:01;;;;;;;3.00;1.27;;;9.80;99.90;;;;;;5072977;28;20428;-73
2023/03/31 06:21:28;;;;;;;4.00;1.43;;;9.80;99.90;;;;;;5065869;28;20560;-73
2023/03/31 06:23:57;;;;;;;3.25;1.20;;;9.90;99.90;;;;;;5082482;28;20939;-73
2023/03/31 06:26:23;;;;;;;4.28;1.33;;;10.00;99.90;;;;;;5093916;28;20405;-73
2023/03/31 06:28:50;;;;;;;3.38;1.20;;;10.10;99.90;;;;;;5078919;28;20525;-73
2023/03/31 06:31:20;;;;;;;3.28;1.40;;;10.20;99.90;;;;;;5079676;28;20518;-73
2023/03/31 06:33:51;;;;;;;2.83;1.25;;;10.20;99.90;;;;;;5085299;28;20890;-73
2023/03/31 06:36:23;;;;;;;4.15;1.30;;;10.20;99.90;;;;;;5076310;28;20423;-73
2023/03/31 06:38:50;;;;;;;3.40;1.20;;;10.30;99.90;;;;;;5084777;28;20412;-73
2023/03/31 06:41:19;;;;;;;3.70;1.30;;;10.40;99.90;;;;;;5083672;28;20411;-73
2023/03/31 06:43:45;;;;;;;3.03;1.20;;;10.50;99.90;;;;;;5074096;28;21074;-73
2023/03/31 06:46:15;;;;;;;3.47;1.27;;;10.50;99.90;;;;;;5085163;28;20621;-73
2023/03/31 06:48:41;;;;;;;1.85;1.20;;;10.60;99.90;;;;;;5074746;28;21044;-74
2023/03/31 06:51:08;;;;;;;2.45;1.20;;;10.60;99.90;;;;;;5077545;28;21340;-73
2023/03/31 06:53:36;;;;;;;3.17;1.40;;;10.60;99.90;;;;;;5106251;27;20412;-73
2023/03/31 06:56:03;;;;;;;2.42;1.20;;;10.60;99.90;;;;;;5111821;27;20407;-74
2023/03/31 06:58:29;;;;;;;3.55;1.30;;;10.50;99.90;;;;;;5077495;28;20871;-73
2023/03/31 07:00:56;;;;;;;4.00;1.40;;;10.60;99.90;;;;;;5083508;28;20433;-73
2023/03/31 07:03:23;;;;;;;3.30;1.30;;;10.60;99.90;;;;;;5077364;28;20417;-74
2023/03/31 07:05:52;;;;;;;2.97;1.30;;;10.70;99.90;;;;;;5104793;27;20484;-74
2023/03/31 07:08:19;;;;;;;2.60;1.20;;;10.90;99.90;;;;;;5071279;28;20415;-73
2023/03/31 07:10:57;;;;;;;2.93;1.30;;;10.90;99.90;;;;;;5078484;28;20449;-73
2023/03/31 07:13:25;;;;;;;3.67;1.50;;;10.80;99.90;;;;;;5074212;28;20538;-73
2023/03/31 07:15:52;;;;;;;2.53;1.27;;;11.00;99.90;;;;;;5073429;28;20414;-73
2023/03/31 07:18:20;;;;;;;3.87;1.47;;;11.00;99.90;;;;;;5071854;28;20415;-73
2023/03/31 07:20:54;;;;;;;2.70;1.48;;;10.80;99.90;;;;;;5088202;27;20409;-73
2023/03/31 07:23:21;;;;;;;3.97;1.40;;;10.80;99.90;;;;;;5089820;28;20479;-73
2023/03/31 07:25:47;;;;;;;2.30;1.30;;;10.90;99.90;;;;;;5101104;27;20808;-73
2023/03/31 07:28:14;;;;;;;4.55;1.45;;;11.00;99.90;;;;;;5072642;28;20510;-73
2023/03/31 07:30:41;;;;;;;3.65;1.40;;;11.10;99.90;;;;;;5075652;28;20419;-74
2023/03/31 07:33:08;;;;;;;3.03;1.45;;;11.10;99.90;;;;;;5072428;28;20414;-74
2023/03/31 07:35:40;;;;;;;2.97;1.52;;;11.10;99.90;;;;;;5090994;28;20546;-73
2023/03/31 07:38:10;;;;;;;2.70;1.33;;;11.20;99.90;;;;;;5060633;28;20400;-73
2023/03/31 07:40:37;;;;;;;2.80;1.33;;;11.20;99.90;;;;;;5094868;27;20415;-73
2023/03/31 07:43:04;;;;;;;3.40;1.40;;;11.30;99.90;;;;;;5081529;28;20459;-73
2023/03/31 07:45:32;;;;;;;3.77;1.50;;;11.10;99.90;;;;;;5061002;28;20440;-74
2023/03/31 07:47:59;;;;;;;3.35;1.27;;;11.00;99.90;;;;;;5100675;27;20819;-73
2023/03/31 07:50:25;;;;;;;4.75;1.65;;;11.10;99.90;;;;;;5078160;28;20414;-73
2023/03/31 07:52:52;;;;;;;3.47;1.40;;;11.30;99.90;;;;;;5088809;27;20412;-74
2023/03/31 07:55:18;;;;;;;4.25;1.58;;;11.40;99.90;;;;;;5074092;28;20541;-74
2023/03/31 07:57:46;;;;;;;4.30;1.52;;;11.50;99.90;;;;;;5077013;28;20423;-73
2023/03/31 08:00:16;;;;;;;3.10;1.30;;;11.60;99.90;;;;;;5069850;28;20477;-74
2023/03/31 08:02:43;;;;;;;4.05;1.50;;;11.50;99.90;;;;;;5074036;28;20417;-74
2023/03/31 08:05:12;;;;;;;2.92;1.42;;;11.30;99.90;;;;;;5076583;28;20453;-73
2023/03/31 08:07:42;;;;;;;5.20;1.58;;;11.40;99.90;;;;;;5077298;28;20412;-73
2023/03/31 08:10:20;;;;;;;3.25;1.50;;;11.50;99.90;;;;;;5076454;28;20415;-73
2023/03/31 08:12:47;;;;;;;6.07;1.67;;;11.60;99.90;;;;;;5072026;28;20406;-73
2023/03/31 08:15:14;;;;;;;5.57;1.50;;;11.70;99.90;;;;;;5074602;28;20401;-74
2023/03/31 08:17:40;;;;;;;3.67;1.50;;;11.80;99.90;;;;;;5070699;28;20494;-73
2023/03/31 08:20:09;;;;;;;4.28;1.40;;;11.90;99.90;;;;;;5074753;28;20417;-73
2023/03/31 08:22:40;;;;;;;3.58;1.40;;;12.10;99.90;;;;;;5056101;28;20474;-73
2023/03/31 08:25:08;;;;;;;3.75;1.30;;;12.00;99.90;;;;;;5071131;28;21032;-73
2023/03/31 08:27:38;;;;;;;2.60;1.45;;;12.00;99.90;;;;;;5064030;28;20742;-73
2023/03/31 08:30:07;;;;;;;4.75;1.42;;;11.90;99.90;;;;;;5081438;28;20418;-73
2023/03/31 08:32:35;;;;;;;4.47;1.60;;;11.70;99.90;;;;;;5106151;27;20527;-74
2023/03/31 08:35:02;;;;;;;2.67;1.40;;;11.80;99.90;;;;;;5079351;28;20409;-74
2023/03/31 08:37:28;;;;;;;4.50;1.60;;;11.80;99.90;;;;;;5070121;28;20475;-73
2023/03/31 08:39:55;;;;;;;3.85;1.48;;;11.90;99.90;;;;;;5056238;28;20418;-74
2023/03/31 08:42:25;;;;;;;4.47;1.60;;;12.20;99.90;;;;;;5074536;28;20394;-73
2023/03/31 08:45:25;;;;;;;4.38;1.60;;;12.40;99.90;;;;;;5069856;28;21275;-73
2023/03/31 08:48:17;;;;;;;3.17;1.50;;;12.40;99.90;;;;;;5058020;28;21443;-73
2023/03/31 08:51:16;;;;;;;3.20;1.40;;;12.30;99.90;;;;;;5077160;28;20414;-73
2023/03/31 08:54:15;;;;;;;2.88;1.40;;;12.40;99.90;;;;;;5067346;28;20423;-74
2023/03/31 08:56:47;;;;;;;1.92;1.27;;;12.40;99.90;;;;;;5070451;28;20473;-74
2023/03/31 08:59:37;;;;;;;4.53;1.60;;;12.30;99.90;;;;;;5081839;28;20409;-74
2023/03/31 09:02:51;;;;;;;2.33;1.30;;;12.30;99.90;;;;;;5067869;28;20453;-73
2023/03/31 09:05:45;;;;;;;2.97;1.50;;;12.00;99.90;;;;;;5073065;28;20419;-73
2023/03/31 09:08:38;;;;;;;3.35;1.63;;;12.10;99.90;;;;;;5072695;28;20419;-73
2023/03/31 09:11:12;;;;;;;2.10;1.40;;;12.70;99.90;;;;;;5075579;28;20417;-74
2023/03/31 09:14:15;;;;;;;2.92;1.48;;;12.60;99.90;;;;;;5080580;28;20943;-73
2023/03/31 09:17:11;;;;;;;6.30;1.50;;;12.30;99.90;;;;;;5070250;28;20417;-73
2023/03/31 09:19:48;;;;;;;4.35;1.52;;;12.50;99.90;;;;;;5070544;28;20483;-74
2023/03/31 09:22:42;;;;;;;3.53;1.33;;;12.50;99.90;;;;;;5110771;27;20666;-73
2023/03/31 09:25:26;;;;;;;3.70;1.67;;;12.70;99.90;;;;;;5076826;28;20450;-74
2023/03/31 09:27:58;;;;;;;5.03;1.60;;;12.80;99.90;;;;;;5074935;28;20417;-73
2023/03/31 09:30:31;;;;;;;4.72;1.70;;;12.80;99.90;;;;;;5073970;28;20923;-74
2023/03/31 09:33:14;;;;;;;5.63;1.70;;;13.00;99.90;;;;;;5075263;28;20789;-73
2023/03/31 09:35:40;;;;;;;3.92;1.50;;;13.10;99.90;;;;;;5082748;28;20492;-73
2023/03/31 09:38:10;;;;;;;7.00;1.60;;;13.30;99.90;;;;;;5060180;28;20454;-73
2023/03/31 09:40:37;;;;;;;4.45;1.70;;;13.30;99.90;;;;;;5075002;28;20522;-73
2023/03/31 09:43:20;;;;;;;4.97;1.63;;;13.40;99.90;;;;;;5079927;28;21081;-74
2023/03/31 09:45:47;;;;;;;5.88;1.52;;;13.40;99.90;;;;;;5109811;28;20410;-74
2023/03/31 09:48:22;;;;;;;4.67;1.80;;;13.30;99.90;;;;;;5073834;28;20507;-74
2023/03/31 09:50:57;;;;;;;4.93;1.60;;;13.50;99.90;;;;;;5073178;28;20956;-74
2023/03/31 09:53:54;;;;;;;3.30;1.50;;;13.70;99.90;;;;;;5081730;28;20411;-74
2023/03/31 09:56:49;;;;;;;5.03;1.60;;;14.00;99.90;;;;;;5077103;28;20488;-74
2023/03/31 09:59:33;;;;;;;5.17;1.57;;;14.60;99.90;;;;;;5083629;28;20521;-73
2023/03/31 10:02:17;;;;;;;4.63;1.60;;;17.50;99.90;;;;;;5090317;28;20762;-74
2023/03/31 10:04:45;;;;;;;5.03;1.60;;;19.90;99.90;;;;;;5086049;28;20405;-74
2023/03/31 10:07:19;;;;;;;5.10;1.60;;;20.00;99.90;;;;;;5080399;28;20421;-74
2023/03/31 10:09:46;;;;;;;3.75;1.52;;;18.40;99.90;;;;;;5108822;27;20904;-74
2023/03/31 10:12:24;;;;;;;4.88;1.60;;;16.70;99.90;;;;;;5066408;28;20426;-74
2023/03/31 10:14:53;;;;;;;3.88;1.67;;;15.80;99.90;;;;;;5067808;28;20410;-74
2023/03/31 10:17:27;;;;;;;5.30;1.88;;;15.50;99.90;;;;;;5066457;28;20419;-74
2023/03/31 10:20:07;;;;;;;3.33;1.70;;;15.30;99.90;;;;;;5077804;28;20428;-74
2023/03/31 10:22:44;;;;;;;4.70;1.60;;;15.10;99.90;;;;;;5069421;28;20504;-74
2023/03/31 10:25:23;;;;;;;3.53;1.50;;;15.00;99.90;;;;;;5080612;28;20523;-74
2023/03/31 10:27:56;;;;;;;3.28;1.50;;;16.30;99.90;;;;;;5072368;28;20456;-74
2023/03/31 10:30:36;;;;;;;7.65;1.75;;;16.60;99.90;;;;;;5073685;28;20412;-74
2023/03/31 10:33:18;;;;;;;3.27;1.60;;;17.10;99.90;;;;;;5078830;28;20402;-74
2023/03/31 10:35:49;;;;;;;7.70;1.60;;;15.90;99.90;;;;;;5075284;28;20437;-74
2023/03/31 10:38:42;;;;;;;5.63;1.77;;;15.40;99.90;;;;;;5065244;28;20406;-74
2023/03/31 10:41:17;;;;;;;3.75;1.70;;;14.90;99.90;;;;;;5072782;28;20419;-74
2023/03/31 10:43:51;;;;;;;6.00;1.50;;;14.60;99.90;;;;;;5077275;28;20447;-73
2023/03/31 10:46:18;;;;;;;5.32;1.60;;;14.80;99.90;;;;;;5075940;28;20418;-74
2023/03/31 10:48:46;;;;;;;5.03;1.60;;;14.80;99.90;;;;;;5080318;28;20509;-74
2023/03/31 10:51:51;;;;;;;4.37;1.63;;;14.50;99.90;;;;;;5088369;28;20405;-74
2023/03/31 10:54:17;;;;;;;5.93;1.52;;;14.80;99.90;;;;;;5080508;28;20442;-74
2023/03/31 10:56:53;;;;;;;4.82;1.60;;;14.80;99.90;;;;;;5081083;28;20479;-73
2023/03/31 10:59:35;;;;;;;6.43;1.63;;;14.60;99.90;;;;;;5081125;28;20447;-74
2023/03/31 11:02:31;;;;;;;4.05;1.50;;;14.80;99.90;;;;;;5083407;28;20420;-74
2023/03/31 11:05:24;;;;;;;4.80;1.60;;;14.90;99.90;;;;;;5073219;28;20485;-74
2023/03/31 11:08:32;;;;;;;6.18;1.75;;;14.80;99.90;;;;;;5077333;28;20416;-74
2023/03/31 11:11:32;;;;;;;4.63;1.70;;;14.80;99.90;;;;;;5084814;28;20768;-74
2023/03/31 11:14:39;;;;;;;4.07;1.50;;;14.80;99.90;;;;;;5078600;28;20476;-74
2023/03/31 11:17:41;;;;;;;4.53;1.73;;;14.80;99.90;;;;;;5075914;28;20412;-74
2023/03/31 11:20:11;;;;;;;3.63;1.60;;;14.70;99.90;;;;;;5075096;28;20528;-74
2023/03/31 11:23:06;;;;;;;4.60;1.48;;;14.90;99.90;;;;;;5070460;28;20436;-75
2023/03/31 11:25:38;;;;;;;4.50;1.50;;;14.90;99.90;;;;;;5072716;28;20464;-74
2023/03/31 11:28:19;;;;;;;3.87;1.60;;;14.60;99.90;;;;;;5081642;28;20550;-74
2023/03/31 11:31:17;;;;;;;3.50;1.48;;;14.40;99.90;;;;;;5079962;28;20936;-74
2023/03/31 11:33:53;;;;;;;4.57;1.40;;;14.80;99.90;;;;;;5079087;28;20998;-74
2023/03/31 11:37:03;;;;;;;5.15;1.70;;;14.80;99.90;;;;;;5091031;28;20441;-74
2023/03/31 11:40:10;;;;;;;3.75;1.60;;;14.70;99.90;;;;;;5106329;27;20414;-74
2023/03/31 11:43:05;;;;;;;2.77;1.30;;;14.80;99.90;;;;;;5091617;28;21088;-74
2023/03/31 11:45:52;;;;;;;4.32;1.42;;;14.70;99.90;;;;;;5074064;28;21077;-73
2023/03/31 11:48:58;;;;;;;3.75;1.45;;;14.60;99.90;;;;;;5074363;28;20416;-74
2023/03/31 11:52:10;;;;;;;3.80;1.52;;;14.60;99.90;;;;;;5079622;28;20488;-74
2023/03/31 11:55:16;;;;;;;5.35;1.65;;;14.80;99.90;;;;;;5070182;28;21015;-74
2023/03/31 11:57:55;;;;;;;6.30;1.70;;;15.10;99.90;;;;;;5070144;28;20419;-74
2023/03/31 12:00:33;;;;;;;5.78;1.75;;;15.10;99.90;;;;;;5075555;28;20524;-74
2023/03/31 12:03:24;;;;;;;5.20;1.55;;;14.80;99.90;;;;;;5090910;28;20813;-73
2023/03/31 12:06:05;;;;;;;4.40;1.40;;;14.90;99.90;;;;;;5103244;27;21374;-73
2023/03/31 12:08:52;;;;;;;3.47;1.48;;;14.80;99.90;;;;;;5076247;28;20420;-73
2023/03/31 12:11:52;;;;;;;4.30;1.73;;;14.90;99.90;;;;;;5074501;28;20507;-74
2023/03/31 12:14:55;;;;;;;4.82;1.40;;;14.90;99.90;;;;;;5074591;28;20482;-74
2023/03/31 12:17:27;;;;;;;4.33;1.70;;;15.20;99.90;;;;;;5070415;28;20956;-74
2023/03/31 12:20:13;;;;;;;5.97;1.40;;;15.20;99.90;;;;;;5071764;28;20517;-74
2023/03/31 12:22:44;;;;;;;4.40;1.57;;;15.10;99.90;;;;;;5069134;28;20424;-73
2023/03/31 12:25:21;;;;;;;4.65;1.52;;;15.10;99.90;;;;;;5074482;28;20404;-74
2023/03/31 12:27:50;;;;;;;4.15;1.50;;;15.10;99.90;;;;;;5076337;28;20414;-73
2023/03/31 12:30:49;;;;;;;3.97;1.50;;;15.00;99.90;;;;;;5073457;28;20502;-73
2023/03/31 12:33:30;;;;;;;4.90;1.42;;;15.00;99.90;;;;;;5072966;28;20502;-74
2023/03/31 12:36:32;;;;;;;4.28;1.70;;;14.90;99.90;;;;;;5065378;28;20409;-74
2023/03/31 12:39:27;;;;;;;3.78;1.52;;;15.00;99.90;;;;;;5106491;27;20816;-74
2023/03/31 12:42:05;;;;;;;6.65;1.88;;;15.00;99.90;;;;;;5073730;28;20442;-74
2023/03/31 12:44:56;;;;;;;4.65;1.73;;;15.20;99.90;;;;;;5073957;28;20886;-74
2023/03/31 12:47:37;;;;;;;3.67;1.58;;;15.10;99.90;;;;;;5071736;28;20420;-73
2023/03/31 12:50:20;;;;;;;6.07;1.60;;;14.70;99.90;;;;;;5067968;28;20472;-74
2023/03/31 12:53:30;;;;;;;4.30;1.53;;;14.50;99.90;;;;;;5077401;28;20472;-74
2023/03/31 12:55:58;;;;;;;4.22;1.48;;;15.00;99.90;;;;;;5074428;28;20412;-74
2023/03/31 12:58:32;;;;;;;4.00;1.50;;;15.00;99.90;;;;;;5075744;28;20409;-73
2023/03/31 13:01:22;;;;;;;7.20;1.55;;;15.00;99.90;;;;;;5071622;28;20408;-74
2023/03/31 13:04:06;;;;;;;5.60;1.65;;;15.00;99.90;;;;;;5076965;28;20500;-74
2023/03/31 13:06:32;;;;;;;5.20;1.60;;;14.90;99.90;;;;;;5072254;28;20401;-74
2023/03/31 13:09:07;;;;;;;3.90;1.52;;;14.90;99.90;;;;;;5070635;28;20483;-73
2023/03/31 13:11:37;;;;;;;3.78;1.65;;;14.90;99.90;;;;;;5075457;28;20576;-74
2023/03/31 13:14:40;;;;;;;5.95;1.52;;;14.90;99.90;;;;;;5075862;28;20467;-73
2023/03/31 13:17:24;;;;;;;3.80;1.60;;;15.00;99.90;;;;;;5071228;28;20416;-74
2023/03/31 13:19:52;;;;;;;4.20;1.42;;;15.00;99.90;;;;;;5074144;28;21119;-74
2023/03/31 13:22:34;;;;;;;3.63;1.40;;;15.00;99.90;;;;;;5071019;28;20434;-74
2023/03/31 13:25:27;;;;;;;4.38;1.40;;;15.00;99.90;;;;;;5072945;28;20410;-73
2023/03/31 13:27:55;;;;;;;3.47;1.70;;;15.10;99.90;;;;;;5074149;28;20420;-74
2023/03/31 13:30:42;;;;;;;4.40;1.40;;;15.10;99.90;;;;;;5075985;28;20441;-74
2023/03/31 13:33:25;;;;;;;2.93;1.37;;;15.10;99.90;;;;;;5074355;28;20412;-74
2023/03/31 13:36:17;;;;;;;3.20;1.52;;;15.00;99.90;;;;;;5065080;28;20401;-74
2023/03/31 13:39:33;;;;;;;6.38;1.60;;;14.90;99.90;;;;;;5078238;28;20495;-74
2023/03/31 13:42:44;;;;;;;2.92;1.40;;;14.90;99.90;;;;;;5074634;28;20410;-74